createdAt,value
2022-08-19T00:00:43.546Z,0.00
2022-08-19T00:01:43.615Z,0.00
2022-08-19T00:02:50.135Z,0.00
2022-08-19T00:03:43.431Z,0.00
2022-08-19T00:04:43.449Z,0.00
2022-08-19T00:05:52.510Z,0.00
2022-08-19T00:06:43.396Z,0.00
2022-08-19T00:07:43.461Z,0.00
2022-08-19T00:08:43.343Z,0.00
2022-08-19T00:09:43.275Z,0.00
2022-08-19T00:10:43.281Z,0.00
2022-08-19T00:11:43.892Z,0.00
2022-08-19T00:12:47.016Z,0.00
2022-08-19T00:13:43.229Z,0.00
2022-08-19T00:14:43.152Z,0.00
2022-08-19T00:15:43.136Z,0.00
2022-08-19T00:16:43.108Z,0.00
2022-08-19T00:17:43.202Z,0.00
2022-08-19T00:18:43.039Z,0.00
2022-08-19T00:19:43.038Z,0.00
2022-08-19T00:20:43.020Z,0.00
2022-08-19T00:21:42.966Z,0.00
2022-08-19T00:22:42.943Z,0.00
2022-08-19T00:23:43.021Z,0.00
2022-08-19T00:24:42.891Z,0.00
2022-08-19T00:25:42.887Z,0.00
2022-08-19T00:26:42.872Z,0.00
2022-08-19T00:27:42.812Z,0.00
2022-08-19T00:28:42.799Z,0.00
2022-08-19T00:29:42.887Z,0.00
2022-08-19T00:30:43.536Z,0.00
2022-08-19T00:31:42.715Z,0.00
2022-08-19T00:32:42.705Z,0.00
2022-08-19T00:33:42.636Z,0.00
2022-08-19T00:34:42.689Z,0.00
2022-08-19T00:35:42.661Z,0.00
2022-08-19T00:36:42.586Z,0.00
2022-08-19T00:37:42.559Z,0.00
2022-08-19T00:38:42.538Z,0.00
2022-08-19T00:39:42.609Z,0.00
2022-08-19T00:40:43.059Z,0.00
2022-08-19T00:41:42.451Z,0.00
2022-08-19T00:42:42.422Z,0.00
2022-08-19T00:43:42.425Z,0.00
2022-08-19T00:44:42.362Z,0.00
2022-08-19T00:45:42.431Z,0.00
2022-08-19T00:46:42.314Z,0.00
2022-08-19T00:47:42.273Z,0.00
2022-08-19T00:48:42.243Z,0.00
2022-08-19T00:49:42.901Z,0.00
2022-08-19T00:50:51.953Z,0.00
2022-08-19T00:51:42.220Z,0.00
2022-08-19T00:52:42.177Z,0.00
2022-08-19T00:53:42.103Z,0.00
2022-08-19T00:54:42.073Z,0.00
2022-08-19T00:55:42.071Z,0.00
2022-08-19T00:56:42.073Z,0.00
2022-08-19T00:57:41.991Z,0.00
2022-08-19T00:58:42.001Z,0.00
2022-08-19T01:00:01.091Z,0.00
2022-08-19T01:00:41.960Z,0.00
2022-08-19T01:01:42.048Z,0.00
2022-08-19T01:02:41.930Z,0.00
2022-08-19T01:03:58.077Z,0.00
2022-08-19T01:04:41.830Z,0.00
2022-08-19T01:05:41.841Z,0.00
2022-08-19T01:06:41.751Z,0.00
2022-08-19T01:07:42.076Z,0.00
2022-08-19T01:08:41.736Z,0.00
2022-08-19T01:09:41.701Z,0.00
2022-08-19T01:10:41.667Z,0.00
2022-08-19T01:11:41.614Z,0.00
2022-08-19T01:12:41.723Z,0.00
2022-08-19T01:13:45.608Z,0.00
2022-08-19T01:14:42.523Z,0.00
2022-08-19T01:15:41.504Z,0.00
2022-08-19T01:16:41.503Z,0.00
2022-08-19T01:17:41.448Z,0.00
2022-08-19T01:18:41.514Z,0.00
2022-08-19T01:19:44.079Z,0.00
2022-08-19T01:20:41.397Z,0.00
2022-08-19T01:21:41.352Z,0.00
2022-08-19T01:22:41.321Z,0.00
2022-08-19T01:23:41.334Z,0.00
2022-08-19T01:24:42.251Z,0.00
2022-08-19T01:25:41.246Z,0.00
2022-08-19T01:26:41.237Z,0.00
2022-08-19T01:27:43.129Z,0.00
2022-08-19T01:28:42.415Z,0.00
2022-08-19T01:29:41.213Z,0.00
2022-08-19T01:30:44.228Z,0.00
2022-08-19T01:31:41.097Z,0.00
2022-08-19T01:32:41.067Z,0.00
2022-08-19T01:33:41.029Z,0.00
2022-08-19T01:34:41.101Z,0.00
2022-08-19T01:35:41.091Z,0.00
2022-08-19T01:36:40.942Z,0.00
2022-08-19T01:37:40.949Z,0.00
2022-08-19T01:38:44.396Z,0.00
2022-08-19T01:39:40.886Z,0.00
2022-08-19T01:40:40.916Z,0.00
2022-08-19T01:41:40.899Z,0.00
2022-08-19T01:42:40.802Z,0.00
2022-08-19T01:44:09.866Z,0.00
2022-08-19T01:44:40.752Z,0.00
2022-08-19T01:45:40.722Z,0.00
2022-08-19T01:46:40.764Z,0.00
2022-08-19T01:47:41.183Z,0.00
2022-08-19T01:48:40.648Z,0.00
2022-08-19T01:49:40.622Z,0.00
2022-08-19T01:50:40.595Z,0.00
2022-08-19T01:51:40.653Z,0.00
2022-08-19T01:52:40.573Z,0.00
2022-08-19T01:53:40.481Z,0.00
2022-08-19T01:54:40.464Z,0.00
2022-08-19T01:55:41.351Z,0.00
2022-08-19T01:56:40.405Z,0.00
2022-08-19T01:57:40.450Z,0.00
2022-08-19T01:58:40.343Z,0.00
2022-08-19T01:59:40.320Z,0.00
2022-08-19T02:00:40.304Z,0.00
2022-08-19T02:01:40.294Z,0.00
2022-08-19T02:02:40.238Z,0.00
2022-08-19T02:03:40.315Z,0.00
2022-08-19T02:04:40.192Z,0.00
2022-08-19T02:05:40.168Z,0.00
2022-08-19T02:06:40.134Z,0.00
2022-08-19T02:07:40.132Z,0.00
2022-08-19T02:08:40.105Z,0.00
2022-08-19T02:09:40.118Z,0.00
2022-08-19T02:10:40.004Z,0.00
2022-08-19T02:11:39.994Z,0.00
2022-08-19T02:12:39.967Z,0.00
2022-08-19T02:13:40.017Z,0.00
2022-08-19T02:14:39.891Z,0.00
2022-08-19T02:15:39.955Z,0.00
2022-08-19T02:16:39.836Z,0.00
2022-08-19T02:17:39.817Z,0.00
2022-08-19T02:18:39.805Z,0.00
2022-08-19T02:19:41.148Z,0.00
2022-08-19T02:20:39.723Z,0.00
2022-08-19T02:21:39.740Z,0.00
2022-08-19T02:22:39.666Z,0.00
2022-08-19T02:23:39.690Z,0.00
2022-08-19T02:24:39.619Z,0.00
2022-08-19T02:25:39.710Z,0.00
2022-08-19T02:26:39.563Z,0.00
2022-08-19T02:27:39.562Z,0.00
2022-08-19T02:28:39.500Z,0.00
2022-08-19T02:29:39.472Z,0.00
2022-08-19T02:30:39.451Z,0.00
2022-08-19T02:31:39.479Z,0.00
2022-08-19T02:32:44.340Z,0.00
2022-08-19T02:33:39.366Z,0.00
2022-08-19T02:34:39.531Z,0.00
2022-08-19T02:35:39.319Z,0.00
2022-08-19T02:36:42.420Z,0.00
2022-08-19T02:37:39.339Z,0.00
2022-08-19T02:38:39.219Z,0.00
2022-08-19T02:39:39.247Z,0.00
2022-08-19T02:40:39.231Z,0.00
2022-08-19T02:41:39.156Z,0.00
2022-08-19T02:42:39.136Z,0.00
2022-08-19T02:43:39.092Z,0.00
2022-08-19T02:44:39.089Z,0.00
2022-08-19T02:45:40.405Z,0.00
2022-08-19T02:46:39.013Z,0.00
2022-08-19T02:47:39.022Z,0.00
2022-08-19T02:48:38.952Z,0.00
2022-08-19T02:49:38.920Z,0.00
2022-08-19T02:50:38.887Z,0.00
2022-08-19T02:51:38.934Z,0.00
2022-08-19T02:52:38.847Z,0.00
2022-08-19T02:53:38.804Z,0.00
2022-08-19T02:54:38.763Z,0.00
2022-08-19T02:55:46.137Z,0.00
2022-08-19T02:56:38.788Z,0.00
2022-08-19T02:57:38.691Z,0.00
2022-08-19T02:58:38.654Z,0.00
2022-08-19T02:59:38.637Z,0.00
2022-08-19T03:00:39.654Z,0.00
2022-08-19T03:01:38.690Z,0.00
2022-08-19T03:02:38.566Z,0.00
2022-08-19T03:03:38.514Z,0.00
2022-08-19T03:04:38.503Z,0.00
2022-08-19T03:05:55.677Z,0.00
2022-08-19T03:06:38.679Z,0.00
2022-08-19T03:07:38.414Z,0.00
2022-08-19T03:08:38.397Z,0.00
2022-08-19T03:09:38.373Z,0.00
2022-08-19T03:10:38.377Z,0.00
2022-08-19T03:11:38.309Z,0.00
2022-08-19T03:12:38.393Z,0.00
2022-08-19T03:13:38.263Z,0.00
2022-08-19T03:14:38.256Z,0.00
2022-08-19T03:15:38.236Z,0.00
2022-08-19T03:16:38.210Z,0.00
2022-08-19T03:17:38.249Z,0.00
2022-08-19T03:18:38.137Z,0.00
2022-08-19T03:19:38.089Z,0.00
2022-08-19T03:20:38.076Z,0.00
2022-08-19T03:21:38.020Z,0.00
2022-08-19T03:22:37.999Z,0.00
2022-08-19T03:23:38.019Z,0.00
2022-08-19T03:24:37.945Z,0.00
2022-08-19T03:25:37.917Z,0.00
2022-08-19T03:26:37.915Z,0.00
2022-08-19T03:27:37.878Z,4.00
2022-08-19T03:28:37.973Z,4.00
2022-08-19T03:29:44.001Z,0.00
2022-08-19T03:30:37.766Z,4.00
2022-08-19T03:31:42.066Z,8.00
2022-08-19T03:32:37.738Z,4.00
2022-08-19T03:33:37.776Z,4.00
2022-08-19T03:34:37.708Z,8.00
2022-08-19T03:35:37.644Z,12.00
2022-08-19T03:36:37.632Z,12.00
2022-08-19T03:37:37.580Z,16.00
2022-08-19T03:38:37.679Z,20.00
2022-08-19T03:39:37.578Z,24.00
2022-08-19T03:40:37.492Z,28.00
2022-08-19T03:41:44.898Z,32.00
2022-08-19T03:42:48.929Z,36.00
2022-08-19T03:43:37.422Z,44.00
2022-08-19T03:44:37.465Z,48.00
2022-08-19T03:45:39.455Z,60.00
2022-08-19T03:46:37.351Z,68.00
2022-08-19T03:47:37.296Z,76.00
2022-08-19T03:48:37.263Z,88.00
2022-08-19T03:49:37.356Z,92.00
2022-08-19T03:50:37.283Z,104.00
2022-08-19T03:51:37.190Z,116.00
2022-08-19T03:52:37.177Z,124.00
2022-08-19T03:53:37.129Z,136.00
2022-08-19T03:54:37.114Z,148.00
2022-08-19T03:55:37.218Z,160.00
2022-08-19T03:56:37.057Z,180.00
2022-08-19T03:57:37.015Z,216.00
2022-08-19T03:58:37.007Z,276.00
2022-08-19T03:59:36.982Z,356.00
2022-08-19T04:00:36.979Z,440.00
2022-08-19T04:01:37.072Z,512.00
2022-08-19T04:02:36.902Z,568.00
2022-08-19T04:03:36.847Z,608.00
2022-08-19T04:04:36.914Z,656.00
2022-08-19T04:05:36.822Z,712.00
2022-08-19T04:06:39.521Z,760.00
2022-08-19T04:07:36.835Z,820.00
2022-08-19T04:08:36.804Z,880.00
2022-08-19T04:09:36.680Z,936.00
2022-08-19T04:10:36.666Z,984.00
2022-08-19T04:11:43.889Z,1032.00
2022-08-19T04:12:36.624Z,1048.00
2022-08-19T04:13:36.667Z,1048.00
2022-08-19T04:14:36.644Z,1076.00
2022-08-19T04:15:36.516Z,1100.00
2022-08-19T04:16:36.512Z,1144.00
2022-08-19T04:17:36.472Z,1180.00
2022-08-19T04:18:36.606Z,1220.00
2022-08-19T04:19:37.079Z,1256.00
2022-08-19T04:20:36.428Z,1276.00
2022-08-19T04:21:36.379Z,1312.00
2022-08-19T04:22:36.351Z,1332.00
2022-08-19T04:23:36.291Z,1332.00
2022-08-19T04:24:36.359Z,1324.00
2022-08-19T04:25:36.242Z,1320.00
2022-08-19T04:26:36.224Z,1264.00
2022-08-19T04:27:36.192Z,1224.00
2022-08-19T04:28:36.152Z,1292.00
2022-08-19T04:29:36.232Z,1396.00
2022-08-19T04:30:36.101Z,1448.00
2022-08-19T04:31:36.098Z,1420.00
2022-08-19T04:32:36.047Z,1356.00
2022-08-19T04:33:36.028Z,1308.00
2022-08-19T04:34:36.008Z,1268.00
2022-08-19T04:35:36.019Z,1224.00
2022-08-19T04:36:35.956Z,1180.00
2022-08-19T04:37:35.948Z,1152.00
2022-08-19T04:38:35.875Z,1140.00
2022-08-19T04:39:35.906Z,1156.00
2022-08-19T04:40:35.968Z,1188.00
2022-08-19T04:41:35.796Z,1204.00
2022-08-19T04:42:35.774Z,1268.00
2022-08-19T04:43:35.759Z,1320.00
2022-08-19T04:44:35.729Z,1376.00
2022-08-19T04:45:43.491Z,1444.00
2022-08-19T04:46:39.934Z,1512.00
2022-08-19T04:47:47.470Z,1588.00
2022-08-19T04:48:35.612Z,1664.00
2022-08-19T04:49:35.577Z,1740.00
2022-08-19T04:50:35.573Z,1860.00
2022-08-19T04:51:35.576Z,1956.00
2022-08-19T04:52:35.515Z,2056.00
2022-08-19T04:53:37.670Z,2144.00
2022-08-19T04:54:38.587Z,2236.00
2022-08-19T04:55:38.268Z,2312.00
2022-08-19T04:56:35.523Z,2428.00
2022-08-19T04:57:35.374Z,2572.00
2022-08-19T04:58:35.322Z,2752.00
2022-08-19T04:59:35.322Z,2944.00
2022-08-19T05:00:35.270Z,3164.00
2022-08-19T05:01:35.301Z,3420.00
2022-08-19T05:02:35.315Z,3700.00
2022-08-19T05:03:35.188Z,3924.00
2022-08-19T05:04:35.189Z,4332.00
2022-08-19T05:05:44.801Z,4628.00
2022-08-19T05:06:35.121Z,4920.00
2022-08-19T05:07:35.097Z,5244.00
2022-08-19T05:08:35.181Z,5540.00
2022-08-19T05:09:58.469Z,5732.00
2022-08-19T05:10:34.996Z,5760.00
2022-08-19T05:11:34.968Z,5836.00
2022-08-19T05:12:34.942Z,5876.00
2022-08-19T05:13:34.919Z,5864.00
2022-08-19T05:14:35.014Z,5812.00
2022-08-19T05:15:34.869Z,5644.00
2022-08-19T05:16:34.865Z,5532.00
2022-08-19T05:17:38.370Z,5488.00
2022-08-19T05:18:34.783Z,5548.00
2022-08-19T05:19:34.748Z,5580.00
2022-08-19T05:20:34.806Z,5656.00
2022-08-19T05:21:34.726Z,5700.00
2022-08-19T05:22:34.684Z,5756.00
2022-08-19T05:23:34.646Z,5804.00
2022-08-19T05:24:34.617Z,5644.00
2022-08-19T05:25:34.674Z,5336.00
2022-08-19T05:26:34.563Z,5020.00
2022-08-19T05:27:34.535Z,4796.00
2022-08-19T05:28:34.521Z,4652.00
2022-08-19T05:29:36.436Z,4612.00
2022-08-19T05:30:46.851Z,4548.00
2022-08-19T05:31:34.577Z,4432.00
2022-08-19T05:32:34.406Z,4528.00
2022-08-19T05:33:34.372Z,4472.00
2022-08-19T05:34:34.348Z,4536.00
2022-08-19T05:35:34.670Z,4588.00
2022-08-19T05:36:34.308Z,4660.00
2022-08-19T05:37:34.334Z,4744.00
2022-08-19T05:38:34.239Z,4856.00
2022-08-19T05:39:34.238Z,4940.00
2022-08-19T05:40:34.186Z,4940.00
2022-08-19T05:41:34.169Z,5032.00
2022-08-19T05:42:34.213Z,5000.00
2022-08-19T05:43:34.137Z,5036.00
2022-08-19T05:44:34.076Z,5128.00
2022-08-19T05:45:34.056Z,5140.00
2022-08-19T05:46:34.025Z,5252.00
2022-08-19T05:47:34.074Z,5296.00
2022-08-19T05:48:33.973Z,5464.00
2022-08-19T05:49:33.953Z,5736.00
2022-08-19T05:50:33.936Z,5876.00
2022-08-19T05:51:33.923Z,5696.00
2022-08-19T05:52:33.870Z,5748.00
2022-08-19T05:53:33.902Z,5428.00
2022-08-19T05:54:33.810Z,5972.00
2022-08-19T05:55:33.783Z,6188.00
2022-08-19T05:56:33.771Z,5992.00
2022-08-19T05:57:33.745Z,6852.00
2022-08-19T05:58:33.777Z,7560.00
2022-08-19T05:59:33.687Z,7184.00
2022-08-19T06:00:33.664Z,8608.00
2022-08-19T06:01:33.678Z,8316.00
2022-08-19T06:02:33.634Z,8412.00
2022-08-19T06:03:33.680Z,8364.00
2022-08-19T06:04:33.560Z,9260.00
2022-08-19T06:05:33.530Z,9784.00
2022-08-19T06:06:42.639Z,10308.00
2022-08-19T06:07:33.474Z,11024.00
2022-08-19T06:08:33.837Z,11036.00
2022-08-19T06:09:33.476Z,10968.00
2022-08-19T06:10:33.395Z,10860.00
2022-08-19T06:11:33.416Z,10840.00
2022-08-19T06:12:33.337Z,10820.00
2022-08-19T06:13:35.201Z,10936.00
2022-08-19T06:14:33.481Z,11164.00
2022-08-19T06:15:33.263Z,11216.00
2022-08-19T06:16:33.239Z,11132.00
2022-08-19T06:17:33.218Z,11080.00
2022-08-19T06:18:33.192Z,11112.00
2022-08-19T06:19:33.169Z,11060.00
2022-08-19T06:20:54.446Z,11524.00
2022-08-19T06:21:33.135Z,11408.00
2022-08-19T06:22:33.090Z,11196.00
2022-08-19T06:23:33.062Z,11040.00
2022-08-19T06:24:33.037Z,11316.00
2022-08-19T06:25:33.014Z,10592.00
2022-08-19T06:26:33.103Z,9788.00
2022-08-19T06:27:32.964Z,9780.00
2022-08-19T06:28:32.940Z,9560.00
2022-08-19T06:29:32.913Z,9480.00
2022-08-19T06:30:32.888Z,9200.00
2022-08-19T06:31:32.933Z,8064.00
2022-08-19T06:32:32.841Z,7836.00
2022-08-19T06:33:32.813Z,7956.00
2022-08-19T06:34:32.797Z,7468.00
2022-08-19T06:35:32.790Z,7436.00
2022-08-19T06:36:32.839Z,7484.00
2022-08-19T06:37:32.718Z,8428.00
2022-08-19T06:38:32.688Z,8220.00
2022-08-19T06:39:32.733Z,9208.00
2022-08-19T06:40:32.695Z,9536.00
2022-08-19T06:41:32.771Z,10300.00
2022-08-19T06:42:32.587Z,10660.00
2022-08-19T06:43:32.564Z,11252.00
2022-08-19T06:44:32.547Z,11652.00
2022-08-19T06:45:35.447Z,11916.00
2022-08-19T06:46:33.575Z,11972.00
2022-08-19T06:47:32.517Z,12060.00
2022-08-19T06:48:34.618Z,12572.00
2022-08-19T06:49:32.515Z,12896.00
2022-08-19T06:50:32.391Z,12964.00
2022-08-19T06:52:34.143Z,12832.00
2022-08-19T06:53:34.050Z,12656.00
2022-08-19T06:54:32.296Z,12656.00
2022-08-19T06:55:33.465Z,12664.00
2022-08-19T06:56:32.250Z,12776.00
2022-08-19T06:57:32.268Z,12972.00
2022-08-19T06:58:32.207Z,13296.00
2022-08-19T06:59:32.169Z,13540.00
2022-08-19T07:01:32.127Z,13392.00
2022-08-19T07:02:32.161Z,13424.00
2022-08-19T07:03:32.083Z,13572.00
2022-08-19T07:04:32.049Z,13788.00
2022-08-19T07:05:32.029Z,13932.00
2022-08-19T07:06:43.297Z,13932.00
2022-08-19T07:07:32.034Z,13716.00
2022-08-19T07:08:32.046Z,13332.00
2022-08-19T07:09:31.924Z,13116.00
2022-08-19T07:10:31.897Z,13152.00
2022-08-19T07:11:31.877Z,13204.00
2022-08-19T07:12:31.853Z,13396.00
2022-08-19T07:13:32.219Z,13480.00
2022-08-19T07:14:31.801Z,13260.00
2022-08-19T07:15:31.774Z,13012.00
2022-08-19T07:16:31.755Z,12900.00
2022-08-19T07:17:31.737Z,11912.00
2022-08-19T07:18:31.771Z,11416.00
2022-08-19T07:19:31.680Z,11216.00
2022-08-19T07:20:31.659Z,11260.00
2022-08-19T07:21:31.636Z,11424.00
2022-08-19T07:22:31.613Z,11352.00
2022-08-19T07:23:31.719Z,11516.00
2022-08-19T07:24:33.641Z,11084.00
2022-08-19T07:25:32.352Z,10792.00
2022-08-19T07:26:31.510Z,10368.00
2022-08-19T07:27:33.664Z,9632.00
2022-08-19T07:28:31.465Z,8736.00
2022-08-19T07:29:31.539Z,7684.00
2022-08-19T07:30:31.548Z,7544.00
2022-08-19T07:31:31.406Z,7552.00
2022-08-19T07:32:31.378Z,7064.00
2022-08-19T07:33:31.347Z,7168.00
2022-08-19T07:34:31.378Z,7604.00
2022-08-19T07:35:31.300Z,7504.00
2022-08-19T07:36:31.285Z,7760.00
2022-08-19T07:37:33.355Z,7128.00
2022-08-19T07:38:31.226Z,6596.00
2022-08-19T07:39:31.281Z,6852.00
2022-08-19T07:40:31.282Z,7928.00
2022-08-19T07:41:31.159Z,8120.00
2022-08-19T07:42:31.165Z,9048.00
2022-08-19T07:43:34.917Z,9876.00
2022-08-19T07:44:31.119Z,10672.00
2022-08-19T07:45:31.050Z,11628.00
2022-08-19T07:46:31.085Z,11112.00
2022-08-19T07:47:50.347Z,11204.00
2022-08-19T07:48:30.980Z,12544.00
2022-08-19T07:49:30.958Z,12804.00
2022-08-19T07:50:30.993Z,14028.00
2022-08-19T07:51:36.565Z,13948.00
2022-08-19T07:52:30.886Z,12800.00
2022-08-19T07:53:30.866Z,12016.00
2022-08-19T07:54:30.840Z,11576.00
2022-08-19T07:55:42.453Z,14044.00
2022-08-19T07:56:30.853Z,14808.00
2022-08-19T07:57:30.847Z,14272.00
2022-08-19T07:58:30.744Z,13988.00
2022-08-19T07:59:30.726Z,12320.00
2022-08-19T08:00:30.700Z,13856.00
2022-08-19T08:01:30.785Z,11504.00
2022-08-19T08:02:30.664Z,10104.00
2022-08-19T08:03:30.641Z,8604.00
2022-08-19T08:04:30.603Z,7736.00
2022-08-19T08:05:30.584Z,8008.00
2022-08-19T08:06:30.643Z,7496.00
2022-08-19T08:07:31.493Z,7856.00
2022-08-19T08:08:30.617Z,7424.00
2022-08-19T08:09:30.485Z,8832.00
2022-08-19T08:10:30.463Z,7900.00
2022-08-19T08:11:30.439Z,7180.00
2022-08-19T08:12:34.626Z,9788.00
2022-08-19T08:13:30.392Z,10696.00
2022-08-19T08:14:35.127Z,9696.00
2022-08-19T08:15:30.341Z,9696.00
2022-08-19T08:16:30.325Z,8672.00
2022-08-19T08:17:40.689Z,8288.00
2022-08-19T08:18:30.448Z,8888.00
2022-08-19T08:19:30.258Z,9300.00
2022-08-19T08:20:30.220Z,9552.00
2022-08-19T08:21:30.251Z,12940.00
2022-08-19T08:22:30.232Z,14864.00
2022-08-19T08:23:30.160Z,12012.00
2022-08-19T08:24:30.123Z,12028.00
2022-08-19T08:25:32.482Z,11680.00
2022-08-19T08:26:30.075Z,8936.00
2022-08-19T08:27:30.156Z,8052.00
2022-08-19T08:28:30.103Z,8780.00
2022-08-19T08:29:34.584Z,10528.00
2022-08-19T08:30:32.583Z,9136.00
2022-08-19T08:31:29.959Z,10908.00
2022-08-19T08:32:29.936Z,11484.00
2022-08-19T08:33:34.647Z,11672.00
2022-08-19T08:34:29.982Z,14176.00
2022-08-19T08:35:29.865Z,12716.00
2022-08-19T08:36:29.851Z,11740.00
2022-08-19T08:37:29.908Z,10052.00
2022-08-19T08:38:29.945Z,8972.00
2022-08-19T08:39:29.830Z,8964.00
2022-08-19T08:40:29.746Z,8260.00
2022-08-19T08:41:29.730Z,9816.00
2022-08-19T08:42:29.700Z,10560.00
2022-08-19T08:43:32.401Z,10312.00
2022-08-19T08:44:29.710Z,7620.00
2022-08-19T08:45:29.625Z,7856.00
2022-08-19T08:46:31.719Z,7936.00
2022-08-19T08:47:29.581Z,8812.00
2022-08-19T08:48:29.557Z,9484.00
2022-08-19T08:49:29.586Z,9216.00
2022-08-19T08:50:29.519Z,9484.00
2022-08-19T08:51:33.182Z,9384.00
2022-08-19T08:52:32.061Z,10864.00
2022-08-19T08:53:32.538Z,11836.00
2022-08-19T08:54:29.511Z,11684.00
2022-08-19T08:55:36.627Z,10508.00
2022-08-19T08:57:29.371Z,7036.00
2022-08-19T08:58:29.324Z,6584.00
2022-08-19T08:59:29.317Z,7252.00
2022-08-19T09:00:29.340Z,8600.00
2022-08-19T09:01:30.453Z,9112.00
2022-08-19T09:02:29.227Z,10256.00
2022-08-19T09:03:31.663Z,11384.00
2022-08-19T09:04:29.190Z,13500.00
2022-08-19T09:05:29.230Z,14624.00
2022-08-19T09:06:29.258Z,14640.00
2022-08-19T09:07:35.221Z,14728.00
2022-08-19T09:08:29.089Z,14016.00
2022-08-19T09:09:29.071Z,13292.00
2022-08-19T09:10:29.048Z,13628.00
2022-08-19T09:11:42.703Z,11908.00
2022-08-19T09:12:29.003Z,9096.00
2022-08-19T09:13:28.983Z,5912.00
2022-08-19T09:14:49.126Z,4732.00
2022-08-19T09:15:33.563Z,4708.00
2022-08-19T09:16:29.568Z,4432.00
2022-08-19T09:17:28.882Z,5360.00
2022-08-19T09:18:29.697Z,6184.00
2022-08-19T09:19:29.604Z,5644.00
2022-08-19T09:20:29.614Z,4836.00
2022-08-19T09:21:33.076Z,4564.00
2022-08-19T09:22:28.821Z,5388.00
2022-08-19T09:23:28.795Z,5288.00
2022-08-19T09:24:31.224Z,4444.00
2022-08-19T09:25:29.634Z,4404.00
2022-08-19T09:26:29.795Z,5476.00
2022-08-19T09:27:35.591Z,5276.00
2022-08-19T09:28:28.654Z,4544.00
2022-08-19T09:29:28.660Z,4880.00
2022-08-19T09:30:28.613Z,4660.00
2022-08-19T09:31:28.608Z,3376.00
2022-08-19T09:32:28.919Z,3756.00
2022-08-19T09:33:32.121Z,3532.00
2022-08-19T09:34:28.497Z,3780.00
2022-08-19T09:35:28.521Z,3756.00
2022-08-19T09:36:34.790Z,3888.00
2022-08-19T09:37:28.555Z,4528.00
2022-08-19T09:38:28.697Z,4268.00
2022-08-19T09:39:36.089Z,4120.00
2022-08-19T09:40:30.084Z,4076.00
2022-08-19T09:41:28.684Z,3868.00
2022-08-19T09:42:30.223Z,4252.00
2022-08-19T09:43:32.869Z,4552.00
2022-08-19T09:44:28.285Z,3668.00
2022-08-19T09:45:28.301Z,2868.00
2022-08-19T09:46:28.234Z,2912.00
2022-08-19T09:47:28.202Z,3064.00
2022-08-19T09:48:28.373Z,2800.00
2022-08-19T09:49:28.175Z,2816.00
2022-08-19T09:50:28.139Z,2756.00
2022-08-19T09:51:28.212Z,4000.00
2022-08-19T09:52:32.729Z,6116.00
2022-08-19T09:53:28.054Z,7404.00
2022-08-19T09:54:28.107Z,8520.00
2022-08-19T09:55:31.306Z,7796.00
2022-08-19T09:56:28.083Z,6784.00
2022-08-19T09:57:27.952Z,4936.00
2022-08-19T09:58:27.921Z,4364.00
2022-08-19T09:59:27.964Z,4428.00
2022-08-19T10:00:27.935Z,4548.00
2022-08-19T10:01:27.904Z,4708.00
2022-08-19T10:02:29.062Z,3876.00
2022-08-19T10:03:29.963Z,3600.00
2022-08-19T10:04:27.825Z,4444.00
2022-08-19T10:05:27.834Z,4564.00
2022-08-19T10:06:45.889Z,3820.00
2022-08-19T10:07:28.965Z,3872.00
2022-08-19T10:08:27.681Z,3032.00
2022-08-19T10:09:34.624Z,2964.00
2022-08-19T10:10:27.716Z,3000.00
2022-08-19T10:11:36.515Z,2912.00
2022-08-19T10:12:27.596Z,3148.00
2022-08-19T10:13:27.557Z,3648.00
2022-08-19T10:14:27.541Z,4060.00
2022-08-19T10:15:29.096Z,4052.00
2022-08-19T10:16:30.020Z,4340.00
2022-08-19T10:17:31.744Z,4804.00
2022-08-19T10:18:27.456Z,4792.00
2022-08-19T10:19:27.411Z,5080.00
2022-08-19T10:20:27.365Z,5072.00
2022-08-19T10:21:27.455Z,4708.00
2022-08-19T10:22:27.327Z,4248.00
2022-08-19T10:23:27.307Z,4752.00
2022-08-19T10:24:27.302Z,4564.00
2022-08-19T10:25:27.274Z,5324.00
2022-08-19T10:26:27.228Z,6664.00
2022-08-19T10:27:27.247Z,6520.00
2022-08-19T10:28:27.182Z,5872.00
2022-08-19T10:29:32.170Z,5988.00
2022-08-19T10:30:27.135Z,4772.00
2022-08-19T10:31:59.912Z,4980.00
2022-08-19T10:32:32.036Z,5024.00
2022-08-19T10:33:53.015Z,4372.00
2022-08-19T10:34:28.201Z,4264.00
2022-08-19T10:35:27.053Z,4352.00
2022-08-19T10:36:26.992Z,4140.00
2022-08-19T10:37:31.335Z,3188.00
2022-08-19T10:38:31.348Z,3500.00
2022-08-19T10:39:30.521Z,4236.00
2022-08-19T10:40:26.959Z,6152.00
2022-08-19T10:41:26.878Z,6244.00
2022-08-19T10:42:26.836Z,6536.00
2022-08-19T10:43:26.882Z,4684.00
2022-08-19T10:44:32.359Z,3500.00
2022-08-19T10:45:28.656Z,3152.00
2022-08-19T10:46:26.741Z,3048.00
2022-08-19T10:47:31.515Z,3396.00
2022-08-19T10:48:26.759Z,3512.00
2022-08-19T10:49:26.670Z,3352.00
2022-08-19T10:50:28.532Z,4712.00
2022-08-19T10:51:26.633Z,5048.00
2022-08-19T10:52:32.496Z,4012.00
2022-08-19T10:53:26.674Z,4268.00
2022-08-19T10:54:32.111Z,5060.00
2022-08-19T10:55:29.790Z,4860.00
2022-08-19T10:56:26.498Z,4864.00
2022-08-19T10:57:36.901Z,4168.00
2022-08-19T10:58:26.442Z,6016.00
2022-08-19T10:59:26.916Z,5100.00
2022-08-19T11:00:26.396Z,4812.00
2022-08-19T11:01:26.451Z,4628.00
2022-08-19T11:02:26.335Z,5060.00
2022-08-19T11:03:26.325Z,3744.00
2022-08-19T11:04:26.659Z,4108.00
2022-08-19T11:05:26.293Z,4848.00
2022-08-19T11:06:26.261Z,4500.00
2022-08-19T11:07:26.219Z,5336.00
2022-08-19T11:08:26.216Z,4500.00
2022-08-19T11:09:33.328Z,3932.00
2022-08-19T11:10:26.210Z,3584.00
2022-08-19T11:11:26.125Z,4012.00
2022-08-19T11:12:26.103Z,3244.00
2022-08-19T11:13:26.078Z,3820.00
2022-08-19T11:14:26.107Z,4388.00
2022-08-19T11:15:26.079Z,4296.00
2022-08-19T11:16:25.989Z,3788.00
2022-08-19T11:17:25.980Z,3396.00
2022-08-19T11:18:25.933Z,3892.00
2022-08-19T11:19:25.943Z,4012.00
2022-08-19T11:20:26.067Z,3940.00
2022-08-19T11:21:25.863Z,3992.00
2022-08-19T11:22:28.839Z,3616.00
2022-08-19T11:23:25.821Z,3560.00
2022-08-19T11:24:25.796Z,3632.00
2022-08-19T11:25:25.760Z,3380.00
2022-08-19T11:26:25.828Z,3292.00
2022-08-19T11:27:25.719Z,3448.00
2022-08-19T11:28:25.690Z,3792.00
2022-08-19T11:29:25.669Z,3640.00
2022-08-19T11:30:25.639Z,3860.00
2022-08-19T11:31:29.159Z,3652.00
2022-08-19T11:32:25.591Z,4248.00
2022-08-19T11:33:25.586Z,3872.00
2022-08-19T11:34:25.543Z,3724.00
2022-08-19T11:35:25.513Z,3740.00
2022-08-19T11:36:25.567Z,4452.00
2022-08-19T11:37:25.464Z,4212.00
2022-08-19T11:38:25.446Z,4544.00
2022-08-19T11:39:25.424Z,4424.00
2022-08-19T11:40:25.387Z,5488.00
2022-08-19T11:41:25.365Z,6900.00
2022-08-19T11:42:25.520Z,5436.00
2022-08-19T11:43:25.319Z,5884.00
2022-08-19T11:44:25.299Z,5084.00
2022-08-19T11:45:25.268Z,5172.00
2022-08-19T11:46:25.252Z,5708.00
2022-08-19T11:47:25.214Z,6880.00
2022-08-19T11:48:25.244Z,6032.00
2022-08-19T11:49:25.171Z,5804.00
2022-08-19T11:50:25.146Z,4576.00
2022-08-19T11:51:25.115Z,4400.00
2022-08-19T11:52:25.099Z,4900.00
2022-08-19T11:53:25.266Z,4076.00
2022-08-19T11:54:25.065Z,3860.00
2022-08-19T11:55:25.662Z,3396.00
2022-08-19T11:56:24.990Z,3724.00
2022-08-19T11:57:24.962Z,4116.00
2022-08-19T11:58:24.942Z,4800.00
2022-08-19T11:59:25.051Z,4140.00
2022-08-19T12:00:24.892Z,4152.00
2022-08-19T12:01:24.873Z,4304.00
2022-08-19T12:02:24.838Z,5516.00
2022-08-19T12:03:24.933Z,5632.00
2022-08-19T12:04:24.884Z,4728.00
2022-08-19T12:05:24.765Z,4500.00
2022-08-19T12:06:24.741Z,4960.00
2022-08-19T12:07:34.850Z,5296.00
2022-08-19T12:08:24.684Z,6136.00
2022-08-19T12:09:24.775Z,5712.00
2022-08-19T12:10:26.363Z,5760.00
2022-08-19T12:11:24.614Z,5524.00
2022-08-19T12:12:24.596Z,6792.00
2022-08-19T12:13:24.561Z,6604.00
2022-08-19T12:14:24.530Z,5612.00
2022-08-19T12:15:24.635Z,4972.00
2022-08-19T12:16:24.538Z,4844.00
2022-08-19T12:17:24.466Z,4244.00
2022-08-19T12:18:24.435Z,4208.00
2022-08-19T12:19:24.415Z,3908.00
2022-08-19T12:20:24.391Z,4048.00
2022-08-19T12:21:24.411Z,3580.00
2022-08-19T12:22:24.333Z,3256.00
2022-08-19T12:23:24.305Z,3560.00
2022-08-19T12:24:24.513Z,4220.00
2022-08-19T12:25:24.260Z,4780.00
2022-08-19T12:26:24.333Z,6296.00